ROMMA est une association bénévole à but non lucratif. Votre soutien est indispensable : ADHERER à ROMMA ou FAIRE un DON

Granges-lès-Beaumont - (26, Drôme)

Drôme des Collines (155 m)   Longitude: 04°58'E   Latitude: 45°03'N Station partenaire n°123
 

Détail journalier du     <<     >>

Température Precipitation Humidité Pression Vent Dir Rafale Dir. rafale Ensol.
Heure (°C) (mm) (%) (hPa) (km/h) (km/h) (min)
01:00 -0.808510283O11NE0
02:00 -1.408710283NO8NO0
03:00 -1.508810284NNE10ONO0
04:00 -0.908810288NO15NO0
05:00 -1.108810288NO16NNO0
06:00 -2.008810282NNE6N0
07:00 -2.6089102806NNE0
08:00 -2.408910282NNO10NNE0
09:00 0.408910283NO11NO40
10:00 1.808510284N13ONO20
11:00 4.608010276ONO15ONO0
12:00 7.206810275ONO13ONO40
13:00 10.4059102612NNE24NE60
14:00 10.7061102517N32NE60
15:00 10.5062102416NNE29NE60
16:00 9.4064102417NNE27NNE60
17:00 8.4066102314NNE23N60
18:00 6.7071102312NNE19N20
19:00 4.207810235NNE15NNE0
20:00 2.408210234NNE10NO0
21:00 1.008410232NNO10NNO0
22:00 0.008610232NNO6NNO0
23:00 -0.508710232NNO10NNO0
minuit -1.0088102306NNO0

Graphique du 06-02-2019

 

Serveur OMMA